RYR496E LEZL-GCFV
Flight info
| Callsign | RYR496E |
|---|---|
| Flight time | N/A |
| Altitude | 37000 |
| Route | CLANA N857 KORNO UN857 TERTO |
| Aircraft | B38M/M-SDE1FGHILORVWXY/HB1 |
Departure
| Time | 2026-05-08 12:30 |
|---|---|
| Airport | Seville Airport (LEZL) |
Arrival
| Time | N/A |
|---|---|
| Airport | Fuerteventura Airport (GCFV) |
| Time | Latitude | Longitude | Altitude | Speed | Heading |
|---|---|---|---|---|---|
| 2026-05-08 12:02 | 37.42299 | -5.89849 | 99 ft | 0 kts | 345° |
| 2026-05-08 12:19 | 37.42287 | -5.89845 | 100 ft | 4 kts | 345° |
| 2026-05-08 12:20 | 37.42261 | -5.89836 | 100 ft | 4 kts | 345° |
| 2026-05-08 12:20 | 37.42235 | -5.89827 | 101 ft | 4 kts | 343° |
| 2026-05-08 12:20 | 37.42213 | -5.89824 | 101 ft | 4 kts | 34° |
| 2026-05-08 12:20 | 37.42194 | -5.89845 | 101 ft | 4 kts | 43° |
| 2026-05-08 12:21 | 37.42190 | -5.89850 | 102 ft | 1 kts | 43° |
| 2026-05-08 12:23 | 37.42209 | -5.89828 | 100 ft | 8 kts | 42° |
| 2026-05-08 12:23 | 37.42254 | -5.89772 | 101 ft | 9 kts | 60° |
| 2026-05-08 12:24 | 37.42250 | -5.89712 | 101 ft | 7 kts | 117° |
| 2026-05-08 12:24 | 37.42213 | -5.89654 | 102 ft | 9 kts | 135° |
| 2026-05-08 12:24 | 37.42162 | -5.89589 | 101 ft | 11 kts | 134° |
| 2026-05-08 12:24 | 37.42104 | -5.89516 | 102 ft | 13 kts | 144° |
| 2026-05-08 12:25 | 37.42041 | -5.89434 | 102 ft | 14 kts | 134° |
| 2026-05-08 12:25 | 37.41984 | -5.89336 | 103 ft | 13 kts | 97° |
| 2026-05-08 12:25 | 37.41983 | -5.89226 | 106 ft | 13 kts | 89° |
| 2026-05-08 12:25 | 37.41983 | -5.89113 | 108 ft | 13 kts | 90° |
| 2026-05-08 12:26 | 37.41984 | -5.88989 | 109 ft | 15 kts | 90° |
| 2026-05-08 12:26 | 37.41984 | -5.88857 | 112 ft | 15 kts | 90° |
| 2026-05-08 12:26 | 37.41985 | -5.88732 | 115 ft | 14 kts | 90° |
| 2026-05-08 12:26 | 37.41985 | -5.88604 | 115 ft | 15 kts | 89° |
| 2026-05-08 12:27 | 37.41986 | -5.88459 | 114 ft | 18 kts | 90° |
| 2026-05-08 12:27 | 37.41986 | -5.88296 | 119 ft | 19 kts | 90° |
| 2026-05-08 12:27 | 37.41987 | -5.88119 | 117 ft | 22 kts | 90° |
| 2026-05-08 12:27 | 37.41987 | -5.87913 | 115 ft | 25 kts | 90° |
| 2026-05-08 12:28 | 37.41988 | -5.87688 | 116 ft | 26 kts | 89° |
| 2026-05-08 12:28 | 37.41963 | -5.87478 | 114 ft | 22 kts | 124° |
| 2026-05-08 12:28 | 37.41854 | -5.87434 | 119 ft | 16 kts | 189° |
| 2026-05-08 12:28 | 37.41802 | -5.87504 | 118 ft | 12 kts | 268° |
| 2026-05-08 12:29 | 37.41801 | -5.87568 | 119 ft | 0 kts | 269° |
| 2026-05-08 12:29 | 37.41801 | -5.87615 | 117 ft | 23 kts | 270° |
| 2026-05-08 12:29 | 37.41799 | -5.88145 | 117 ft | 96 kts | 269° |
| 2026-05-08 12:29 | 37.41795 | -5.89242 | 107 ft | 153 kts | 269° |
| 2026-05-08 12:30 | 37.41831 | -5.90670 | 543 ft | 166 kts | 272° |
| 2026-05-08 12:30 | 37.41934 | -5.92141 | 1268 ft | 170 kts | 272° |
| 2026-05-08 12:30 | 37.42012 | -5.93649 | 1860 ft | 183 kts | 275° |
| 2026-05-08 12:30 | 37.42302 | -5.95274 | 2563 ft | 194 kts | 286° |
| 2026-05-08 12:31 | 37.42967 | -5.96813 | 3195 ft | 208 kts | 304° |
| 2026-05-08 12:31 | 37.43756 | -5.98341 | 4049 ft | 213 kts | 293° |
| 2026-05-08 12:31 | 37.44272 | -6.00114 | 4841 ft | 217 kts | 282° |
| 2026-05-08 12:31 | 37.44573 | -6.01962 | 5751 ft | 214 kts | 273° |
| 2026-05-08 12:32 | 37.44454 | -6.03819 | 6444 ft | 218 kts | 249° |
| 2026-05-08 12:32 | 37.43628 | -6.05452 | 7039 ft | 230 kts | 222° |
| 2026-05-08 12:32 | 37.42239 | -6.06514 | 7660 ft | 241 kts | 200° |
| 2026-05-08 12:32 | 37.40574 | -6.06942 | 8360 ft | 249 kts | 185° |
| 2026-05-08 12:33 | 37.38826 | -6.06979 | 9186 ft | 253 kts | 180° |
| 2026-05-08 12:33 | 37.37038 | -6.06925 | 9947 ft | 260 kts | 179° |
| 2026-05-08 12:33 | 37.35185 | -6.06803 | 10521 ft | 275 kts | 180° |
| 2026-05-08 12:33 | 37.33201 | -6.06652 | 10922 ft | 294 kts | 179° |
| 2026-05-08 12:34 | 37.31108 | -6.06489 | 11491 ft | 307 kts | 180° |
| 2026-05-08 12:34 | 37.28958 | -6.06322 | 12277 ft | 311 kts | 180° |
| 2026-05-08 12:34 | 37.26795 | -6.06154 | 13141 ft | 313 kts | 181° |
| 2026-05-08 12:34 | 37.24607 | -6.05985 | 13967 ft | 317 kts | 181° |
| 2026-05-08 12:35 | 37.22393 | -6.05812 | 14769 ft | 321 kts | 181° |
| 2026-05-08 12:35 | 37.20158 | -6.05638 | 15611 ft | 323 kts | 181° |
| 2026-05-08 12:35 | 37.17901 | -6.05464 | 16383 ft | 327 kts | 182° |
| 2026-05-08 12:35 | 37.15672 | -6.05760 | 17112 ft | 321 kts | 201° |
| 2026-05-08 12:36 | 37.13702 | -6.07023 | 17812 ft | 320 kts | 218° |
| 2026-05-08 12:36 | 37.11921 | -6.08718 | 18500 ft | 323 kts | 219° |
| 2026-05-08 12:36 | 37.10148 | -6.10465 | 19199 ft | 325 kts | 220° |
| 2026-05-08 12:36 | 37.08378 | -6.12255 | 19845 ft | 329 kts | 221° |
| 2026-05-08 12:37 | 37.06621 | -6.14051 | 20470 ft | 331 kts | 221° |
| 2026-05-08 12:37 | 37.04832 | -6.15895 | 21073 ft | 335 kts | 221° |
| 2026-05-08 12:37 | 37.03032 | -6.17764 | 21675 ft | 337 kts | 222° |
| 2026-05-08 12:37 | 37.01234 | -6.19675 | 22257 ft | 340 kts | 222° |
| 2026-05-08 12:38 | 36.99424 | -6.21599 | 22827 ft | 343 kts | 222° |
| 2026-05-08 12:38 | 36.97600 | -6.23536 | 23382 ft | 346 kts | 222° |
| 2026-05-08 12:38 | 36.95758 | -6.25490 | 23912 ft | 349 kts | 222° |
| 2026-05-08 12:38 | 36.93903 | -6.27457 | 24445 ft | 351 kts | 222° |
| 2026-05-08 12:39 | 36.92037 | -6.29434 | 24979 ft | 353 kts | 223° |
| 2026-05-08 12:39 | 36.90159 | -6.31422 | 25484 ft | 355 kts | 223° |
| 2026-05-08 12:39 | 36.88269 | -6.33422 | 25967 ft | 357 kts | 223° |
| 2026-05-08 12:39 | 36.86370 | -6.35429 | 26437 ft | 359 kts | 223° |
| 2026-05-08 12:40 | 36.84461 | -6.37447 | 26896 ft | 361 kts | 223° |
| 2026-05-08 12:40 | 36.82538 | -6.39477 | 27345 ft | 363 kts | 223° |
| 2026-05-08 12:40 | 36.81258 | -6.40827 | 27642 ft | 364 kts | 223° |
| 2026-05-08 12:40 | 36.79321 | -6.42871 | 28064 ft | 366 kts | 223° |
| 2026-05-08 12:41 | 36.77370 | -6.44926 | 28459 ft | 368 kts | 223° |
| 2026-05-08 12:41 | 36.75409 | -6.46992 | 28876 ft | 370 kts | 223° |
| 2026-05-08 12:41 | 36.73443 | -6.49061 | 29272 ft | 371 kts | 223° |
| 2026-05-08 12:41 | 36.71466 | -6.51141 | 29656 ft | 372 kts | 224° |
| 2026-05-08 12:42 | 36.69480 | -6.53228 | 30030 ft | 374 kts | 224° |
| 2026-05-08 12:42 | 36.67487 | -6.55322 | 30395 ft | 375 kts | 224° |
| 2026-05-08 12:42 | 36.65484 | -6.57425 | 30752 ft | 377 kts | 224° |
| 2026-05-08 12:42 | 36.63481 | -6.59525 | 31119 ft | 378 kts | 224° |
| 2026-05-08 12:43 | 36.61465 | -6.61638 | 31486 ft | 379 kts | 224° |
| 2026-05-08 12:43 | 36.59445 | -6.63753 | 31863 ft | 379 kts | 224° |
| 2026-05-08 12:43 | 36.57434 | -6.65857 | 32345 ft | 376 kts | 224° |
| 2026-05-08 12:43 | 36.55438 | -6.67946 | 32868 ft | 373 kts | 225° |
| 2026-05-08 12:44 | 36.53491 | -6.69981 | 33387 ft | 369 kts | 225° |
| 2026-05-08 12:44 | 36.51536 | -6.72021 | 33908 ft | 365 kts | 225° |
| 2026-05-08 12:44 | 36.49591 | -6.74029 | 34421 ft | 361 kts | 225° |
| 2026-05-08 12:44 | 36.47672 | -6.76008 | 34871 ft | 358 kts | 225° |
| 2026-05-08 12:45 | 36.45752 | -6.77988 | 35205 ft | 358 kts | 225° |
| 2026-05-08 12:45 | 36.43832 | -6.79967 | 35502 ft | 358 kts | 225° |
| 2026-05-08 12:45 | 36.41918 | -6.81940 | 35793 ft | 358 kts | 225° |
| 2026-05-08 12:45 | 36.40003 | -6.83912 | 36050 ft | 358 kts | 225° |
| 2026-05-08 12:46 | 36.38083 | -6.85887 | 36307 ft | 359 kts | 225° |
| 2026-05-08 12:46 | 36.36157 | -6.87866 | 36555 ft | 359 kts | 225° |
| 2026-05-08 12:46 | 36.34239 | -6.89836 | 36836 ft | 358 kts | 225° |
| 2026-05-08 12:46 | 36.32320 | -6.91806 | 36949 ft | 356 kts | 225° |
| 2026-05-08 12:47 | 36.28559 | -6.95664 | 36936 ft | 349 kts | 225° |
| 2026-05-08 12:47 | 36.24822 | -6.99492 | 36936 ft | 348 kts | 225° |
| 2026-05-08 12:48 | 36.21089 | -7.03311 | 36935 ft | 348 kts | 225° |
| 2026-05-08 12:48 | 36.17358 | -7.07123 | 36935 ft | 348 kts | 225° |
| 2026-05-08 12:49 | 36.13631 | -7.10927 | 36932 ft | 347 kts | 225° |
| 2026-05-08 12:49 | 36.09906 | -7.14723 | 36937 ft | 347 kts | 225° |
| 2026-05-08 12:50 | 36.06183 | -7.18513 | 36934 ft | 346 kts | 225° |
| 2026-05-08 12:50 | 36.02467 | -7.22290 | 36922 ft | 345 kts | 225° |
| 2026-05-08 12:51 | 35.96941 | -7.27900 | 36934 ft | 342 kts | 225° |
| 2026-05-08 12:52 | 35.93280 | -7.31610 | 36934 ft | 340 kts | 225° |
| 2026-05-08 12:52 | 35.87787 | -7.37169 | 36935 ft | 340 kts | 225° |
| 2026-05-08 12:53 | 35.84124 | -7.40870 | 36936 ft | 341 kts | 225° |
| 2026-05-08 12:53 | 35.80453 | -7.44539 | 36934 ft | 339 kts | 225° |
| 2026-05-08 12:54 | 35.76786 | -7.48202 | 36934 ft | 340 kts | 225° |
| 2026-05-08 12:54 | 35.73112 | -7.51868 | 36934 ft | 340 kts | 225° |
| 2026-05-08 12:55 | 35.69440 | -7.55526 | 36933 ft | 339 kts | 225° |
| 2026-05-08 12:55 | 35.65768 | -7.59182 | 36934 ft | 340 kts | 225° |
| 2026-05-08 12:56 | 35.62092 | -7.62836 | 36936 ft | 340 kts | 225° |
| 2026-05-08 12:56 | 35.58440 | -7.66461 | 36934 ft | 340 kts | 225° |
| 2026-05-08 12:57 | 35.54765 | -7.70106 | 36934 ft | 340 kts | 225° |
| 2026-05-08 12:57 | 35.51083 | -7.73753 | 36935 ft | 340 kts | 225° |
| 2026-05-08 12:58 | 35.47405 | -7.77391 | 36934 ft | 340 kts | 225° |
| 2026-05-08 12:58 | 35.43723 | -7.81030 | 36933 ft | 340 kts | 225° |
| 2026-05-08 12:59 | 35.40055 | -7.84682 | 36936 ft | 340 kts | 225° |
| 2026-05-08 12:59 | 35.36388 | -7.88352 | 36935 ft | 340 kts | 225° |
| 2026-05-08 13:00 | 35.32720 | -7.92018 | 36933 ft | 340 kts | 225° |
| 2026-05-08 13:00 | 35.29049 | -7.95681 | 36933 ft | 341 kts | 225° |
| 2026-05-08 13:01 | 35.25385 | -7.99333 | 36935 ft | 342 kts | 225° |
| 2026-05-08 13:01 | 35.21707 | -8.02995 | 36933 ft | 340 kts | 225° |
| 2026-05-08 13:02 | 35.18029 | -8.06653 | 36934 ft | 341 kts | 225° |
| 2026-05-08 13:02 | 35.14350 | -8.10306 | 36935 ft | 341 kts | 225° |
| 2026-05-08 13:03 | 35.10665 | -8.13962 | 36935 ft | 342 kts | 224° |
| 2026-05-08 13:03 | 35.06973 | -8.17620 | 36934 ft | 342 kts | 224° |
| 2026-05-08 13:04 | 35.03273 | -8.21281 | 36933 ft | 342 kts | 224° |
| 2026-05-08 13:04 | 34.99571 | -8.24940 | 36935 ft | 343 kts | 224° |
| 2026-05-08 13:05 | 34.95864 | -8.28600 | 36933 ft | 343 kts | 224° |
| 2026-05-08 13:05 | 34.92156 | -8.32256 | 36934 ft | 343 kts | 224° |
| 2026-05-08 13:06 | 34.88445 | -8.35911 | 36935 ft | 344 kts | 224° |
| 2026-05-08 13:06 | 34.84727 | -8.39569 | 36933 ft | 343 kts | 224° |
| 2026-05-08 13:07 | 34.81009 | -8.43222 | 36935 ft | 343 kts | 224° |
| 2026-05-08 13:07 | 34.77314 | -8.46848 | 36935 ft | 344 kts | 224° |
| 2026-05-08 13:08 | 34.73586 | -8.50502 | 36912 ft | 344 kts | 224° |
| 2026-05-08 13:08 | 34.69860 | -8.54150 | 36908 ft | 344 kts | 224° |
| 2026-05-08 13:09 | 34.66126 | -8.57801 | 36913 ft | 344 kts | 224° |
| 2026-05-08 13:09 | 34.62393 | -8.61447 | 36912 ft | 344 kts | 224° |
| 2026-05-08 13:10 | 34.58659 | -8.65089 | 36921 ft | 344 kts | 224° |
| 2026-05-08 13:10 | 34.54922 | -8.68731 | 36916 ft | 344 kts | 224° |
| 2026-05-08 13:11 | 34.51189 | -8.72364 | 36911 ft | 344 kts | 224° |
| 2026-05-08 13:11 | 34.47447 | -8.76004 | 36922 ft | 345 kts | 224° |
| 2026-05-08 13:12 | 34.43695 | -8.79635 | 36911 ft | 345 kts | 224° |
| 2026-05-08 13:12 | 34.39932 | -8.83255 | 36907 ft | 345 kts | 224° |
| 2026-05-08 13:13 | 34.36164 | -8.86879 | 36910 ft | 345 kts | 224° |
| 2026-05-08 13:13 | 34.32407 | -8.90487 | 36922 ft | 344 kts | 223° |
| 2026-05-08 13:14 | 34.28655 | -8.94086 | 36918 ft | 344 kts | 223° |
| 2026-05-08 13:14 | 34.24905 | -8.97680 | 36921 ft | 344 kts | 223° |
| 2026-05-08 13:15 | 34.21154 | -9.01272 | 36921 ft | 344 kts | 223° |
| 2026-05-08 13:15 | 34.17428 | -9.04834 | 36923 ft | 344 kts | 223° |
| 2026-05-08 13:16 | 34.13672 | -9.08420 | 36920 ft | 344 kts | 223° |
| 2026-05-08 13:16 | 34.09920 | -9.11999 | 36916 ft | 344 kts | 223° |
| 2026-05-08 13:17 | 34.06161 | -9.15580 | 36910 ft | 344 kts | 223° |
| 2026-05-08 13:17 | 34.02410 | -9.19150 | 36927 ft | 343 kts | 223° |
| 2026-05-08 13:18 | 33.98657 | -9.22717 | 36925 ft | 344 kts | 223° |
| 2026-05-08 13:18 | 33.94875 | -9.26308 | 36928 ft | 347 kts | 223° |
| 2026-05-08 13:19 | 33.91080 | -9.29907 | 36929 ft | 347 kts | 223° |
| 2026-05-08 13:19 | 33.87290 | -9.33497 | 36929 ft | 347 kts | 223° |
| 2026-05-08 13:20 | 33.83491 | -9.37091 | 36930 ft | 347 kts | 223° |
| 2026-05-08 13:20 | 33.79708 | -9.40666 | 36936 ft | 346 kts | 223° |
| 2026-05-08 13:21 | 33.75919 | -9.44242 | 36936 ft | 346 kts | 223° |
| 2026-05-08 13:21 | 33.72133 | -9.47811 | 36934 ft | 346 kts | 223° |
| 2026-05-08 13:22 | 33.68375 | -9.51351 | 36934 ft | 345 kts | 223° |
| 2026-05-08 13:22 | 33.64588 | -9.54913 | 36933 ft | 345 kts | 223° |
| 2026-05-08 13:23 | 33.60802 | -9.58470 | 36929 ft | 346 kts | 223° |
| 2026-05-08 13:23 | 33.57016 | -9.62023 | 36927 ft | 346 kts | 223° |
| 2026-05-08 13:24 | 33.53230 | -9.65572 | 36929 ft | 345 kts | 223° |
| 2026-05-08 13:24 | 33.49440 | -9.69121 | 36928 ft | 346 kts | 223° |
| 2026-05-08 13:25 | 33.45649 | -9.72667 | 36928 ft | 347 kts | 223° |
| 2026-05-08 13:25 | 33.41847 | -9.76220 | 36922 ft | 347 kts | 223° |
| 2026-05-08 13:26 | 33.38038 | -9.79773 | 36936 ft | 347 kts | 223° |
| 2026-05-08 13:26 | 33.34221 | -9.83331 | 36944 ft | 348 kts | 223° |
| 2026-05-08 13:27 | 33.30425 | -9.86866 | 36942 ft | 348 kts | 223° |
| 2026-05-08 13:27 | 33.26591 | -9.90431 | 36943 ft | 349 kts | 223° |
| 2026-05-08 13:28 | 33.23379 | -9.93415 | 36942 ft | 350 kts | 223° |
| 2026-05-08 13:28 | 33.19534 | -9.96984 | 36944 ft | 350 kts | 223° |
| 2026-05-08 13:29 | 33.15687 | -10.00549 | 36942 ft | 350 kts | 223° |
| 2026-05-08 13:29 | 33.11841 | -10.04111 | 36940 ft | 349 kts | 223° |
| 2026-05-08 13:30 | 33.08001 | -10.07664 | 36945 ft | 350 kts | 223° |
| 2026-05-08 13:30 | 33.04145 | -10.11227 | 36944 ft | 351 kts | 223° |
| 2026-05-08 13:31 | 33.00301 | -10.14769 | 36942 ft | 352 kts | 222° |
| 2026-05-08 13:31 | 32.96427 | -10.18333 | 36944 ft | 352 kts | 222° |
| 2026-05-08 13:32 | 32.92549 | -10.21899 | 36942 ft | 352 kts | 222° |
| 2026-05-08 13:32 | 32.88657 | -10.25472 | 36944 ft | 353 kts | 222° |
| 2026-05-08 13:33 | 32.84765 | -10.29042 | 36943 ft | 354 kts | 222° |
| 2026-05-08 13:33 | 32.80866 | -10.32614 | 36944 ft | 354 kts | 222° |
| 2026-05-08 13:34 | 32.76959 | -10.36190 | 36952 ft | 355 kts | 222° |
| 2026-05-08 13:34 | 32.73044 | -10.39768 | 36952 ft | 355 kts | 222° |
| 2026-05-08 13:35 | 32.69127 | -10.43345 | 36951 ft | 356 kts | 222° |
| 2026-05-08 13:35 | 32.65203 | -10.46924 | 36952 ft | 356 kts | 222° |
| 2026-05-08 13:36 | 32.61278 | -10.50500 | 36954 ft | 356 kts | 222° |
| 2026-05-08 13:36 | 32.57370 | -10.54056 | 36953 ft | 357 kts | 222° |
| 2026-05-08 13:37 | 32.53423 | -10.57644 | 36953 ft | 357 kts | 222° |
| 2026-05-08 13:37 | 32.49480 | -10.61223 | 36953 ft | 357 kts | 222° |
| 2026-05-08 13:38 | 32.45535 | -10.64801 | 36953 ft | 357 kts | 222° |
| 2026-05-08 13:38 | 32.41585 | -10.68379 | 36953 ft | 357 kts | 222° |
| 2026-05-08 13:39 | 32.37633 | -10.71954 | 36954 ft | 357 kts | 222° |
| 2026-05-08 13:39 | 32.33683 | -10.75525 | 36952 ft | 357 kts | 222° |
| 2026-05-08 13:40 | 32.29735 | -10.79089 | 36951 ft | 357 kts | 222° |
| 2026-05-08 13:40 | 32.25785 | -10.82651 | 36953 ft | 357 kts | 222° |
| 2026-05-08 13:41 | 32.21836 | -10.86209 | 36954 ft | 357 kts | 222° |
| 2026-05-08 13:41 | 32.17885 | -10.89763 | 36954 ft | 357 kts | 222° |
| 2026-05-08 13:42 | 32.13935 | -10.93314 | 36956 ft | 357 kts | 222° |
| 2026-05-08 13:42 | 32.10005 | -10.96841 | 36953 ft | 357 kts | 222° |
| 2026-05-08 13:43 | 32.06054 | -11.00384 | 36953 ft | 356 kts | 222° |
| 2026-05-08 13:43 | 32.02117 | -11.03910 | 36953 ft | 355 kts | 222° |
| 2026-05-08 13:44 | 31.98175 | -11.07438 | 36952 ft | 356 kts | 222° |
| 2026-05-08 13:44 | 31.94192 | -11.10998 | 36949 ft | 362 kts | 222° |
| 2026-05-08 13:45 | 31.90180 | -11.14579 | 36953 ft | 362 kts | 222° |
| 2026-05-08 13:45 | 31.86173 | -11.18153 | 36953 ft | 361 kts | 221° |
| 2026-05-08 13:46 | 31.82169 | -11.21722 | 36953 ft | 361 kts | 221° |
| 2026-05-08 13:46 | 31.78163 | -11.25286 | 36953 ft | 361 kts | 221° |
| 2026-05-08 13:47 | 31.74184 | -11.28832 | 36953 ft | 361 kts | 222° |
| 2026-05-08 13:47 | 31.70157 | -11.32424 | 36953 ft | 361 kts | 221° |
| 2026-05-08 13:48 | 31.66180 | -11.35968 | 36953 ft | 361 kts | 221° |
| 2026-05-08 13:48 | 31.62175 | -11.39534 | 36950 ft | 361 kts | 221° |
| 2026-05-08 13:49 | 31.58173 | -11.43092 | 36952 ft | 361 kts | 221° |
| 2026-05-08 13:49 | 31.54171 | -11.46647 | 36953 ft | 361 kts | 221° |
| 2026-05-08 13:50 | 31.50164 | -11.50204 | 36952 ft | 361 kts | 221° |
| 2026-05-08 13:50 | 31.46161 | -11.53752 | 36944 ft | 360 kts | 221° |
| 2026-05-08 13:51 | 31.42156 | -11.57298 | 36956 ft | 361 kts | 222° |
| 2026-05-08 13:51 | 31.38139 | -11.60849 | 36962 ft | 362 kts | 222° |
| 2026-05-08 13:52 | 31.34145 | -11.64377 | 36954 ft | 362 kts | 222° |
| 2026-05-08 13:52 | 31.30122 | -11.67928 | 36953 ft | 362 kts | 221° |
| 2026-05-08 13:53 | 31.26089 | -11.71483 | 36952 ft | 362 kts | 221° |
| 2026-05-08 13:53 | 31.22064 | -11.75027 | 36953 ft | 363 kts | 221° |
| 2026-05-08 13:54 | 31.18025 | -11.78579 | 36954 ft | 364 kts | 221° |
| 2026-05-08 13:54 | 31.13983 | -11.82131 | 36951 ft | 364 kts | 221° |
| 2026-05-08 13:55 | 31.09943 | -11.85677 | 36951 ft | 364 kts | 221° |
| 2026-05-08 13:56 | 31.03852 | -11.91015 | 36953 ft | 365 kts | 221° |
| 2026-05-08 13:56 | 30.99784 | -11.94575 | 36954 ft | 366 kts | 221° |
| 2026-05-08 13:57 | 30.95712 | -11.98135 | 36952 ft | 366 kts | 221° |
| 2026-05-08 13:57 | 30.91626 | -12.01705 | 36960 ft | 367 kts | 222° |
| 2026-05-08 13:58 | 30.87542 | -12.05267 | 36961 ft | 367 kts | 222° |
| 2026-05-08 13:58 | 30.83457 | -12.08827 | 36961 ft | 367 kts | 222° |
| 2026-05-08 13:59 | 30.79388 | -12.12369 | 36962 ft | 368 kts | 222° |
| 2026-05-08 13:59 | 30.75286 | -12.15935 | 36962 ft | 369 kts | 222° |
| 2026-05-08 14:00 | 30.71176 | -12.19505 | 36963 ft | 369 kts | 222° |
| 2026-05-08 14:00 | 30.67056 | -12.23080 | 36961 ft | 369 kts | 222° |
| 2026-05-08 14:01 | 30.62929 | -12.26657 | 36963 ft | 371 kts | 222° |
| 2026-05-08 14:01 | 30.58790 | -12.30241 | 36971 ft | 371 kts | 222° |
| 2026-05-08 14:02 | 30.54657 | -12.33817 | 36972 ft | 371 kts | 222° |
| 2026-05-08 14:02 | 30.50515 | -12.37391 | 36975 ft | 372 kts | 221° |
| 2026-05-08 14:03 | 30.46387 | -12.40941 | 36971 ft | 372 kts | 221° |
| 2026-05-08 14:03 | 30.42232 | -12.44511 | 36971 ft | 372 kts | 221° |
| 2026-05-08 14:04 | 30.38078 | -12.48077 | 36971 ft | 372 kts | 221° |
| 2026-05-08 14:04 | 30.33919 | -12.51642 | 36972 ft | 372 kts | 221° |
| 2026-05-08 14:05 | 30.29758 | -12.55206 | 36971 ft | 372 kts | 221° |
| 2026-05-08 14:05 | 30.25602 | -12.58762 | 36971 ft | 372 kts | 221° |
| 2026-05-08 14:06 | 30.21442 | -12.62318 | 36972 ft | 372 kts | 221° |
| 2026-05-08 14:06 | 30.17279 | -12.65872 | 36971 ft | 372 kts | 222° |
| 2026-05-08 14:07 | 30.13114 | -12.69425 | 36972 ft | 373 kts | 222° |
| 2026-05-08 14:07 | 30.08809 | -12.72724 | 36976 ft | 377 kts | 216° |
| 2026-05-08 14:08 | 30.04230 | -12.75680 | 36970 ft | 377 kts | 216° |
| 2026-05-08 14:08 | 29.99728 | -12.78563 | 36671 ft | 359 kts | 216° |
| 2026-05-08 14:08 | 29.97557 | -12.79952 | 36241 ft | 355 kts | 216° |
| 2026-05-08 14:09 | 29.95398 | -12.81332 | 35737 ft | 354 kts | 216° |
| 2026-05-08 14:09 | 29.93253 | -12.82702 | 35246 ft | 352 kts | 216° |
| 2026-05-08 14:09 | 29.91118 | -12.84064 | 34769 ft | 350 kts | 216° |
| 2026-05-08 14:09 | 29.88994 | -12.85419 | 34287 ft | 348 kts | 216° |
| 2026-05-08 14:10 | 29.86882 | -12.86766 | 33812 ft | 346 kts | 216° |
| 2026-05-08 14:10 | 29.84785 | -12.88102 | 33332 ft | 344 kts | 216° |
| 2026-05-08 14:10 | 29.82694 | -12.89434 | 32862 ft | 342 kts | 216° |
| 2026-05-08 14:10 | 29.80616 | -12.90757 | 32396 ft | 340 kts | 216° |
| 2026-05-08 14:11 | 29.78550 | -12.92072 | 31925 ft | 338 kts | 215° |
| 2026-05-08 14:11 | 29.76496 | -12.93378 | 31466 ft | 336 kts | 215° |
| 2026-05-08 14:11 | 29.74455 | -12.94676 | 31014 ft | 334 kts | 215° |
| 2026-05-08 14:11 | 29.72424 | -12.95967 | 30568 ft | 332 kts | 215° |
| 2026-05-08 14:12 | 29.70409 | -12.97247 | 30125 ft | 330 kts | 215° |
| 2026-05-08 14:12 | 29.68403 | -12.98521 | 29692 ft | 328 kts | 215° |
| 2026-05-08 14:12 | 29.66414 | -12.99783 | 29263 ft | 326 kts | 214° |
| 2026-05-08 14:12 | 29.64435 | -13.01038 | 28834 ft | 323 kts | 214° |
| 2026-05-08 14:13 | 29.62469 | -13.02285 | 28414 ft | 321 kts | 214° |
| 2026-05-08 14:13 | 29.60544 | -13.03505 | 28019 ft | 319 kts | 214° |
| 2026-05-08 14:13 | 29.58579 | -13.04749 | 27604 ft | 317 kts | 214° |
| 2026-05-08 14:13 | 29.56681 | -13.05951 | 27213 ft | 315 kts | 214° |
| 2026-05-08 14:14 | 29.54744 | -13.07177 | 26820 ft | 312 kts | 214° |
| 2026-05-08 14:14 | 29.52849 | -13.08376 | 26436 ft | 310 kts | 214° |
| 2026-05-08 14:14 | 29.50993 | -13.09550 | 26052 ft | 308 kts | 214° |
| 2026-05-08 14:14 | 29.49124 | -13.10731 | 25683 ft | 305 kts | 214° |
| 2026-05-08 14:15 | 29.47271 | -13.11902 | 25313 ft | 303 kts | 214° |
| 2026-05-08 14:15 | 29.45433 | -13.13063 | 24948 ft | 300 kts | 214° |
| 2026-05-08 14:15 | 29.43606 | -13.14217 | 24584 ft | 298 kts | 214° |
| 2026-05-08 14:15 | 29.41794 | -13.15360 | 24220 ft | 296 kts | 214° |
| 2026-05-08 14:16 | 29.39996 | -13.16495 | 23864 ft | 294 kts | 214° |
| 2026-05-08 14:16 | 29.38212 | -13.17619 | 23509 ft | 292 kts | 214° |
| 2026-05-08 14:16 | 29.36427 | -13.18713 | 23144 ft | 292 kts | 209° |
| 2026-05-08 14:16 | 29.35114 | -13.19216 | 22881 ft | 296 kts | 202° |
| 2026-05-08 14:17 | 29.33138 | -13.19843 | 22550 ft | 293 kts | 202° |
| 2026-05-08 14:17 | 29.31184 | -13.20470 | 22224 ft | 290 kts | 202° |
| 2026-05-08 14:17 | 29.29250 | -13.21088 | 21892 ft | 288 kts | 202° |
| 2026-05-08 14:17 | 29.27331 | -13.21700 | 21561 ft | 285 kts | 202° |
| 2026-05-08 14:18 | 29.25451 | -13.22299 | 21236 ft | 283 kts | 202° |
| 2026-05-08 14:18 | 29.23530 | -13.22913 | 20890 ft | 285 kts | 202° |
| 2026-05-08 14:18 | 29.21623 | -13.23521 | 20532 ft | 290 kts | 202° |
| 2026-05-08 14:18 | 29.19672 | -13.24144 | 20219 ft | 292 kts | 201° |
| 2026-05-08 14:19 | 29.17714 | -13.24768 | 19902 ft | 292 kts | 201° |
| 2026-05-08 14:19 | 29.15763 | -13.25390 | 19571 ft | 290 kts | 201° |
| 2026-05-08 14:19 | 29.13823 | -13.26009 | 19236 ft | 288 kts | 201° |
| 2026-05-08 14:19 | 29.11901 | -13.26621 | 18910 ft | 286 kts | 201° |
| 2026-05-08 14:20 | 29.09992 | -13.27229 | 18581 ft | 283 kts | 201° |
| 2026-05-08 14:20 | 29.08107 | -13.27829 | 18256 ft | 280 kts | 201° |
| 2026-05-08 14:20 | 29.06236 | -13.28424 | 17939 ft | 278 kts | 201° |
| 2026-05-08 14:20 | 29.04378 | -13.29015 | 17617 ft | 276 kts | 201° |
| 2026-05-08 14:21 | 29.02539 | -13.29601 | 17302 ft | 273 kts | 201° |
| 2026-05-08 14:21 | 29.00712 | -13.30181 | 16987 ft | 271 kts | 201° |
| 2026-05-08 14:21 | 28.98902 | -13.30756 | 16683 ft | 269 kts | 201° |
| 2026-05-08 14:21 | 28.97090 | -13.31332 | 16382 ft | 273 kts | 201° |
| 2026-05-08 14:22 | 28.95240 | -13.31920 | 16053 ft | 278 kts | 200° |
| 2026-05-08 14:22 | 28.93374 | -13.32512 | 15737 ft | 279 kts | 200° |
| 2026-05-08 14:22 | 28.91508 | -13.33104 | 15429 ft | 277 kts | 200° |
| 2026-05-08 14:22 | 28.89659 | -13.33691 | 15119 ft | 274 kts | 200° |
| 2026-05-08 14:23 | 28.87828 | -13.34271 | 14811 ft | 272 kts | 200° |
| 2026-05-08 14:23 | 28.86035 | -13.34839 | 14503 ft | 269 kts | 200° |
| 2026-05-08 14:23 | 28.84236 | -13.35410 | 14207 ft | 267 kts | 200° |
| 2026-05-08 14:23 | 28.82452 | -13.35974 | 13911 ft | 264 kts | 200° |
| 2026-05-08 14:24 | 28.80687 | -13.36534 | 13612 ft | 262 kts | 200° |
| 2026-05-08 14:24 | 28.78935 | -13.37089 | 13313 ft | 262 kts | 200° |
| 2026-05-08 14:24 | 28.77154 | -13.37653 | 13013 ft | 267 kts | 200° |
| 2026-05-08 14:24 | 28.75342 | -13.38225 | 12674 ft | 272 kts | 199° |
| 2026-05-08 14:25 | 28.73520 | -13.38801 | 12361 ft | 272 kts | 199° |
| 2026-05-08 14:25 | 28.71693 | -13.39379 | 12061 ft | 273 kts | 199° |
| 2026-05-08 14:25 | 28.69860 | -13.39958 | 11761 ft | 273 kts | 199° |
| 2026-05-08 14:25 | 28.68038 | -13.40533 | 11526 ft | 270 kts | 199° |
| 2026-05-08 14:26 | 28.66254 | -13.41095 | 11384 ft | 262 kts | 199° |
| 2026-05-08 14:26 | 28.64527 | -13.41640 | 11243 ft | 253 kts | 199° |
| 2026-05-08 14:26 | 28.62867 | -13.42199 | 11048 ft | 247 kts | 201° |
| 2026-05-08 14:26 | 28.61234 | -13.42796 | 10738 ft | 246 kts | 201° |
| 2026-05-08 14:27 | 28.59607 | -13.43386 | 10441 ft | 244 kts | 201° |
| 2026-05-08 14:27 | 28.57990 | -13.43971 | 10151 ft | 243 kts | 201° |
| 2026-05-08 14:27 | 28.56721 | -13.44431 | 9935 ft | 243 kts | 201° |